createdAt,value
2023-05-15T00:02:12.328Z,52.00
2023-05-15T00:04:41.098Z,52.00
2023-05-15T00:07:10.895Z,52.00
2023-05-15T00:09:39.202Z,52.00
2023-05-15T00:12:08.661Z,52.00
2023-05-15T00:14:36.908Z,52.00
2023-05-15T01:02:29.984Z,51.40
2023-05-15T01:04:58.396Z,51.50
2023-05-15T01:07:26.951Z,51.50
2023-05-15T01:09:56.714Z,51.50
2023-05-15T01:12:26.971Z,51.50
2023-05-15T01:14:55.659Z,51.50
2023-05-15T01:46:24.941Z,51.10
2023-05-15T01:48:54.548Z,51.20
2023-05-15T01:51:24.951Z,51.20
2023-05-15T01:53:54.500Z,51.20
2023-05-15T01:56:24.145Z,51.10
2023-05-15T01:58:54.798Z,51.20
2023-05-15T02:46:48.460Z,51.10
2023-05-15T02:49:17.879Z,51.10
2023-05-15T02:51:47.966Z,51.10
2023-05-15T02:54:17.460Z,51.10
2023-05-15T02:56:45.743Z,51.10
2023-05-15T02:59:19.641Z,51.20
2023-05-15T03:46:09.197Z,51.10
2023-05-15T03:48:37.597Z,51.30
2023-05-15T03:51:07.725Z,51.70
2023-05-15T03:53:36.169Z,52.00
2023-05-15T03:56:04.642Z,52.10
2023-05-15T03:58:33.066Z,53.50
2023-05-15T04:46:26.563Z,52.70
2023-05-15T04:48:54.959Z,52.60
2023-05-15T04:51:23.280Z,52.60
2023-05-15T04:53:51.643Z,52.60
2023-05-15T04:56:19.952Z,52.50
2023-05-15T04:58:48.279Z,52.50
2023-05-15T05:01:16.660Z,52.40
2023-05-15T05:03:46.467Z,52.20
2023-05-15T05:06:14.865Z,50.50
2023-05-15T05:08:43.305Z,49.40
2023-05-15T05:11:11.653Z,49.10
2023-05-15T05:13:39.973Z,48.60
2023-05-15T05:16:08.945Z,49.00
2023-05-15T05:18:37.387Z,49.60
2023-05-15T05:21:07.736Z,50.20
2023-05-15T05:23:36.188Z,50.10
2023-05-15T05:26:06.222Z,49.70
2023-05-15T05:28:34.797Z,50.00
2023-05-15T05:31:03.184Z,49.80
2023-05-15T05:33:31.591Z,49.60
2023-05-15T05:35:59.956Z,49.40
2023-05-15T05:38:29.733Z,49.60
2023-05-15T05:40:58.111Z,49.40
2023-05-15T05:43:27.613Z,49.40
2023-05-15T05:45:56.099Z,49.20
2023-05-15T05:48:24.463Z,49.00
2023-05-15T05:50:52.779Z,48.90
2023-05-15T05:53:21.074Z,48.70
2023-05-15T05:55:50.813Z,48.70
2023-05-15T05:58:25.679Z,48.60
2023-05-15T06:00:54.992Z,48.50
2023-05-15T06:03:24.024Z,48.40
2023-05-15T06:05:52.892Z,48.40
2023-05-15T06:08:21.486Z,48.30
2023-05-15T06:10:51.170Z,48.30
2023-05-15T06:13:19.738Z,48.50
2023-05-15T06:15:48.114Z,48.70
2023-05-15T06:18:16.520Z,48.70
2023-05-15T06:20:44.876Z,48.80
2023-05-15T06:23:13.226Z,48.90
2023-05-15T06:25:41.655Z,49.10
2023-05-15T06:28:11.375Z,49.10
2023-05-15T06:30:39.830Z,49.20
2023-05-15T06:33:08.348Z,49.20
2023-05-15T06:35:36.886Z,49.30
2023-05-15T06:38:05.280Z,49.30
2023-05-15T06:40:33.750Z,49.40
2023-05-15T06:43:02.121Z,49.50
2023-05-15T06:45:31.843Z,49.50
2023-05-15T06:48:01.874Z,49.70
2023-05-15T06:50:30.540Z,49.60
2023-05-15T06:52:59.344Z,49.70
2023-05-15T06:55:27.935Z,49.70
2023-05-15T06:57:56.362Z,49.70
2023-05-15T07:00:24.709Z,49.70
2023-05-15T07:02:54.518Z,49.80
2023-05-15T07:05:23.366Z,49.80
2023-05-15T07:07:52.035Z,49.70
2023-05-15T07:10:20.565Z,49.80
2023-05-15T07:12:49.018Z,49.80
2023-05-15T07:15:17.852Z,49.80
2023-05-15T07:17:46.373Z,49.90
2023-05-15T07:20:16.103Z,49.90
2023-05-15T07:22:54.851Z,49.90
2023-05-15T07:25:24.125Z,49.90
2023-05-15T07:27:52.906Z,50.00
2023-05-15T07:30:21.243Z,50.00
2023-05-15T07:32:49.789Z,50.00
2023-05-15T07:35:19.635Z,50.20
2023-05-15T07:37:47.961Z,50.10
2023-05-15T07:40:16.556Z,50.20
2023-05-15T07:42:45.845Z,50.10
2023-05-15T07:45:14.596Z,50.10
2023-05-15T07:47:47.447Z,50.10
2023-05-15T07:50:16.855Z,50.10
2023-05-15T07:52:46.531Z,50.10
2023-05-15T07:55:14.881Z,50.10
2023-05-15T07:57:43.329Z,50.20
2023-05-15T08:00:13.725Z,50.20
2023-05-15T08:02:46.237Z,50.10
2023-05-15T08:05:14.775Z,50.20
2023-05-15T08:07:43.211Z,50.20
2023-05-15T08:10:13.539Z,50.20
2023-05-15T08:12:46.163Z,50.20
2023-05-15T08:15:14.952Z,50.20
2023-05-15T08:17:43.411Z,50.20
2023-05-15T08:20:13.319Z,50.20
2023-05-15T08:22:41.680Z,50.20
2023-05-15T08:25:12.225Z,50.20
2023-05-15T08:27:40.572Z,50.20
2023-05-15T08:30:10.439Z,50.20
2023-05-15T08:32:38.842Z,50.20
2023-05-15T08:35:08.957Z,50.20
2023-05-15T08:37:37.300Z,50.20
2023-05-15T08:40:07.924Z,50.10
2023-05-15T08:42:45.756Z,50.10
2023-05-15T08:45:15.151Z,50.20
2023-05-15T08:47:44.543Z,50.20
2023-05-15T08:50:15.384Z,50.20
2023-05-15T08:52:46.853Z,50.20
2023-05-15T08:55:16.263Z,50.20
2023-05-15T08:57:46.836Z,50.20
2023-05-15T09:00:16.818Z,50.20
2023-05-15T09:02:45.352Z,50.20
2023-05-15T09:05:13.666Z,50.20
2023-05-15T09:07:44.838Z,50.20
2023-05-15T09:10:14.169Z,50.20
2023-05-15T09:12:45.809Z,50.30
2023-05-15T09:15:17.633Z,50.30
2023-05-15T09:17:46.750Z,50.30
2023-05-15T09:20:28.439Z,50.30
2023-05-15T09:22:57.474Z,50.30
2023-05-15T09:25:38.584Z,50.30
2023-05-15T09:28:10.572Z,50.30
2023-05-15T09:30:40.240Z,50.30
2023-05-15T09:33:10.150Z,50.30
2023-05-15T09:35:41.689Z,50.90
2023-05-15T09:38:12.778Z,50.30
2023-05-15T09:40:41.808Z,50.30
2023-05-15T09:43:13.149Z,50.30
2023-05-15T09:45:41.532Z,50.30
2023-05-15T09:48:11.990Z,50.40
2023-05-15T09:50:42.415Z,50.40
2023-05-15T09:53:14.145Z,50.40
2023-05-15T09:55:44.093Z,50.40
2023-05-15T09:58:15.771Z,50.40
2023-05-15T10:00:48.051Z,50.40
2023-05-15T10:03:19.962Z,50.40
2023-05-15T10:05:48.600Z,50.40
2023-05-15T10:08:27.202Z,50.40
2023-05-15T10:10:56.862Z,50.50
2023-05-15T10:13:27.085Z,50.50
2023-05-15T10:15:56.372Z,50.50
2023-05-15T10:18:26.203Z,50.40
2023-05-15T10:20:54.642Z,50.40
2023-05-15T10:23:24.211Z,50.40
2023-05-15T10:26:03.217Z,50.40
2023-05-15T10:28:34.980Z,50.40
2023-05-15T10:31:04.352Z,50.40
2023-05-15T10:33:34.112Z,50.40
2023-05-15T10:36:04.618Z,50.50
2023-05-15T10:38:35.460Z,50.50
2023-05-15T10:41:16.473Z,50.50
2023-05-15T10:43:47.770Z,50.50
2023-05-15T10:46:17.308Z,50.50
2023-05-15T10:48:45.813Z,50.50
2023-05-15T10:51:18.459Z,50.50
2023-05-15T10:53:47.349Z,50.50
2023-05-15T10:56:17.560Z,50.50
2023-05-15T10:58:49.585Z,51.10
2023-05-15T11:01:32.067Z,50.50
2023-05-15T11:04:09.561Z,50.50
2023-05-15T11:06:39.716Z,50.50
2023-05-15T11:09:39.493Z,50.40
2023-05-15T11:12:11.693Z,50.40
2023-05-15T11:14:44.220Z,50.40
2023-05-15T11:17:15.307Z,50.50
2023-05-15T11:20:01.099Z,50.50
2023-05-15T11:22:35.892Z,50.50
2023-05-15T11:25:08.766Z,50.50
2023-05-15T11:27:42.042Z,50.50
2023-05-15T11:30:18.115Z,50.50
2023-05-15T11:33:03.033Z,50.50
2023-05-15T11:35:34.583Z,50.50
2023-05-15T11:38:06.039Z,50.50
2023-05-15T11:40:46.672Z,50.50
2023-05-15T11:43:23.276Z,50.60
2023-05-15T11:45:56.125Z,50.50
2023-05-15T11:48:26.440Z,50.60
2023-05-15T11:50:54.824Z,50.60
2023-05-15T11:53:24.154Z,50.60
2023-05-15T11:55:54.727Z,50.60
2023-05-15T11:58:25.400Z,50.60
2023-05-15T12:00:55.466Z,50.60
2023-05-15T12:03:26.690Z,50.60
2023-05-15T12:05:59.457Z,50.60
2023-05-15T12:08:33.556Z,50.60
2023-05-15T12:11:02.871Z,50.60
2023-05-15T12:13:32.580Z,50.60
2023-05-15T12:16:03.540Z,50.60
2023-05-15T12:18:33.112Z,50.60
2023-05-15T12:21:01.945Z,50.70
2023-05-15T12:23:30.288Z,50.70
2023-05-15T12:26:02.400Z,50.70
2023-05-15T12:28:33.545Z,50.70
2023-05-15T12:31:04.013Z,50.70
2023-05-15T12:33:32.501Z,50.70
2023-05-15T12:36:01.788Z,50.70
2023-05-15T12:38:31.082Z,50.70
2023-05-15T12:40:59.674Z,50.70
2023-05-15T12:43:28.482Z,50.70
2023-05-15T12:45:57.868Z,51.20
2023-05-15T12:48:32.903Z,50.70
2023-05-15T12:51:08.040Z,50.70
2023-05-15T12:53:39.320Z,50.70
2023-05-15T12:56:08.899Z,50.70
2023-05-15T12:58:38.341Z,50.70
2023-05-15T13:01:06.970Z,50.70
2023-05-15T13:03:37.376Z,50.70
2023-05-15T13:06:08.041Z,50.70
2023-05-15T13:08:42.559Z,50.70
2023-05-15T13:11:14.323Z,50.70
2023-05-15T13:13:47.816Z,50.80
2023-05-15T13:16:24.870Z,50.70
2023-05-15T13:18:54.951Z,50.80
2023-05-15T13:21:23.307Z,50.80
2023-05-15T13:23:52.835Z,50.80
2023-05-15T13:26:21.740Z,50.80
2023-05-15T13:28:50.146Z,50.80
2023-05-15T13:31:18.665Z,50.80
2023-05-15T13:33:47.087Z,50.80
2023-05-15T13:36:16.876Z,50.90
2023-05-15T13:38:45.381Z,50.90
2023-05-15T13:41:13.827Z,50.90
2023-05-15T13:43:42.324Z,50.90
2023-05-15T13:46:10.794Z,50.90
2023-05-15T13:48:39.238Z,51.00
2023-05-15T13:51:07.645Z,51.00
2023-05-15T13:53:37.398Z,51.10
2023-05-15T13:56:06.940Z,51.10
2023-05-15T13:58:35.424Z,51.10
2023-05-15T14:01:08.030Z,51.10
2023-05-15T14:03:36.829Z,51.10
2023-05-15T14:06:06.216Z,51.10
2023-05-15T14:08:36.213Z,51.10
2023-05-15T14:11:04.678Z,51.10
2023-05-15T14:13:34.662Z,51.10
2023-05-15T14:16:03.302Z,51.10
2023-05-15T14:18:32.240Z,51.60
2023-05-15T14:21:00.694Z,51.40
2023-05-15T14:23:29.170Z,51.50
2023-05-15T14:25:58.921Z,51.50
2023-05-15T14:28:27.185Z,51.50
2023-05-15T14:30:55.594Z,51.70
2023-05-15T14:33:24.087Z,51.70
2023-05-15T14:35:52.597Z,51.80
2023-05-15T14:38:21.349Z,51.80
2023-05-15T14:40:49.979Z,51.90
2023-05-15T14:43:19.877Z,51.60
2023-05-15T14:45:48.335Z,51.60
2023-05-15T14:48:16.646Z,51.60
2023-05-15T14:50:45.702Z,51.70
2023-05-15T14:53:14.076Z,51.70
2023-05-15T14:55:42.528Z,51.70
2023-05-15T14:58:11.698Z,51.60
2023-05-15T15:00:41.523Z,51.60
2023-05-15T15:03:11.461Z,51.60
2023-05-15T15:05:39.852Z,51.60
2023-05-15T15:08:10.887Z,51.60
2023-05-15T15:10:40.930Z,51.60
2023-05-15T15:13:11.655Z,51.60
2023-05-15T15:15:41.835Z,51.50
2023-05-15T15:18:10.315Z,51.40
2023-05-15T15:20:38.839Z,51.40
2023-05-15T15:23:07.156Z,51.60
2023-05-15T15:25:35.668Z,51.40
2023-05-15T15:31:15.415Z,51.40
2023-05-15T15:33:43.774Z,51.40
2023-05-15T15:36:12.091Z,51.50
2023-05-15T15:38:41.852Z,51.50
2023-05-15T15:41:10.255Z,51.50
2023-05-15T15:43:38.591Z,51.50
2023-05-15T15:46:07.037Z,51.50
2023-05-15T15:48:36.941Z,51.60
2023-05-15T15:51:06.247Z,51.60
2023-05-15T15:53:34.870Z,51.50
2023-05-15T16:04:45.681Z,51.50
2023-05-15T16:07:14.002Z,51.50
2023-05-15T16:09:42.474Z,51.50
2023-05-15T16:12:10.758Z,51.50
2023-05-15T16:14:39.352Z,51.50
2023-05-15T16:17:07.705Z,51.50
2023-05-15T16:19:36.049Z,51.50
2023-05-15T16:22:06.124Z,51.50
2023-05-15T16:24:35.746Z,51.50
2023-05-15T16:27:04.461Z,51.50
2023-05-15T16:29:32.821Z,51.50
2023-05-15T16:32:01.236Z,51.50
2023-05-15T16:34:29.550Z,51.70
2023-05-15T16:36:57.834Z,51.70
2023-05-15T16:39:29.506Z,51.60
2023-05-15T16:41:57.857Z,51.70
2023-05-15T16:44:26.148Z,51.70
2023-05-15T16:46:54.428Z,51.60
2023-05-15T16:49:23.096Z,51.60
2023-05-15T16:51:51.426Z,51.60
2023-05-15T16:54:19.722Z,51.60
2023-05-15T16:56:49.430Z,51.60
2023-05-15T16:59:17.756Z,51.60
2023-05-15T17:01:46.079Z,51.60
2023-05-15T17:04:14.381Z,51.60
2023-05-15T17:06:42.744Z,51.70
2023-05-15T17:09:11.025Z,51.80
2023-05-15T17:11:39.299Z,51.80
2023-05-15T17:14:08.975Z,51.80
2023-05-15T17:16:37.320Z,52.10
2023-05-15T17:19:05.715Z,52.90
2023-05-15T17:21:34.451Z,54.20
2023-05-15T17:24:02.827Z,54.80
2023-05-15T17:26:31.065Z,55.60
2023-05-15T17:28:59.382Z,56.50
2023-05-15T17:31:29.401Z,56.40
2023-05-15T17:33:57.787Z,56.10
2023-05-15T17:36:26.112Z,56.70
2023-05-15T17:38:54.622Z,57.40
2023-05-15T17:41:22.874Z,58.50
2023-05-15T17:43:51.186Z,59.70
2023-05-15T17:46:19.551Z,59.00
2023-05-15T17:48:49.119Z,60.30
2023-05-15T17:51:17.432Z,59.90
2023-05-15T17:53:45.762Z,59.40
2023-05-15T17:56:14.079Z,59.20
2023-05-15T17:58:42.381Z,59.00
2023-05-15T18:01:10.838Z,58.90
2023-05-15T18:03:41.671Z,58.90
2023-05-15T18:06:13.429Z,58.80
2023-05-15T18:08:41.849Z,58.60
2023-05-15T18:11:21.412Z,58.70
2023-05-15T18:13:50.948Z,58.70
2023-05-15T18:16:19.291Z,58.60
2023-05-15T18:18:49.245Z,58.50
2023-05-15T18:21:19.634Z,58.30
2023-05-15T18:23:47.943Z,58.20
2023-05-15T18:26:16.325Z,58.40
2023-05-15T18:28:44.705Z,58.50
2023-05-15T18:31:13.035Z,59.00
2023-05-15T18:33:43.016Z,58.30
2023-05-15T18:36:11.373Z,58.30
2023-05-15T18:38:41.068Z,58.20
2023-05-15T18:41:09.397Z,58.20
2023-05-15T18:43:37.759Z,58.10
2023-05-15T18:46:08.570Z,58.10
2023-05-15T18:48:38.201Z,58.00
2023-05-15T18:51:08.212Z,58.00
2023-05-15T18:53:37.631Z,57.90
2023-05-15T18:56:07.496Z,57.90
2023-05-15T18:58:36.441Z,57.90
2023-05-15T19:01:04.813Z,58.00
2023-05-15T19:03:34.211Z,57.90
2023-05-15T19:06:02.625Z,57.80
2023-05-15T19:08:30.927Z,57.80
2023-05-15T19:11:01.316Z,57.40
2023-05-15T19:13:32.888Z,57.20
2023-05-15T19:16:03.167Z,56.20
2023-05-15T19:18:31.464Z,55.70
2023-05-15T19:21:01.229Z,56.30
2023-05-15T19:23:30.478Z,56.90
2023-05-15T19:25:58.900Z,57.80
2023-05-15T19:28:27.290Z,58.60
2023-05-15T19:30:57.005Z,59.80
2023-05-15T19:33:25.552Z,59.70
2023-05-15T19:35:53.864Z,58.40
2023-05-15T19:38:22.363Z,58.00
2023-05-15T19:40:50.725Z,57.80
2023-05-15T19:43:19.110Z,57.40
2023-05-15T19:45:47.510Z,56.60
2023-05-15T19:48:17.304Z,56.40
2023-05-15T19:50:46.950Z,56.30
2023-05-15T19:53:15.209Z,56.20
2023-05-15T19:55:43.482Z,56.00
2023-05-15T19:58:11.997Z,55.90
2023-05-15T20:00:41.128Z,55.70
2023-05-15T20:03:09.664Z,55.40
2023-05-15T20:05:42.138Z,55.40
2023-05-15T20:08:10.430Z,55.30
2023-05-15T20:10:38.814Z,55.20
2023-05-15T20:13:07.278Z,55.20
2023-05-15T20:15:39.770Z,55.30
2023-05-15T20:18:08.584Z,55.10
2023-05-15T20:20:37.107Z,55.00
2023-05-15T20:23:07.312Z,55.10
2023-05-15T20:25:35.931Z,55.10
2023-05-15T20:28:05.302Z,55.10
2023-05-15T20:30:34.068Z,55.20
2023-05-15T20:33:02.424Z,55.10
2023-05-15T20:35:31.095Z,55.00
2023-05-15T20:37:59.469Z,55.00
2023-05-15T20:40:29.388Z,55.00
2023-05-15T20:42:57.770Z,54.80
2023-05-15T20:45:26.991Z,54.80
2023-05-15T20:47:55.309Z,54.60
2023-05-15T20:50:23.701Z,54.60
2023-05-15T20:52:52.293Z,54.50
2023-05-15T20:55:21.609Z,54.50
2023-05-15T20:57:51.688Z,54.40
2023-05-15T21:00:20.313Z,54.30
2023-05-15T21:02:48.741Z,54.20
2023-05-15T21:05:17.087Z,54.30
2023-05-15T21:07:45.489Z,54.00
2023-05-15T21:10:13.849Z,54.00
2023-05-15T21:12:42.202Z,54.00
2023-05-15T21:15:12.794Z,53.90
2023-05-15T21:17:41.461Z,53.90
2023-05-15T21:20:11.215Z,53.80
2023-05-15T21:22:39.902Z,53.80
2023-05-15T21:25:09.571Z,53.80
2023-05-15T21:27:37.978Z,53.80
2023-05-15T21:30:07.934Z,53.80
2023-05-15T21:32:37.628Z,53.80
2023-05-15T21:35:06.866Z,53.70
2023-05-15T21:37:35.197Z,53.60
2023-05-15T21:40:03.629Z,53.70
2023-05-15T21:42:32.471Z,53.60
2023-05-15T21:45:01.039Z,53.60
2023-05-15T21:47:29.395Z,53.70
2023-05-15T21:49:59.028Z,53.60
2023-05-15T21:52:27.306Z,53.60
2023-05-15T21:54:55.909Z,53.50
2023-05-15T21:57:24.203Z,53.50
2023-05-15T21:59:52.469Z,53.50
2023-05-15T22:02:20.870Z,53.50
2023-05-15T22:04:49.339Z,53.60
2023-05-15T22:07:19.484Z,53.50
2023-05-15T22:09:48.005Z,53.50
2023-05-15T22:12:16.435Z,53.50
2023-05-15T22:14:57.561Z,53.30
2023-05-15T22:17:30.288Z,53.60
2023-05-15T22:20:07.312Z,53.80
2023-05-15T22:22:38.729Z,53.80
2023-05-15T22:25:08.531Z,54.50
2023-05-15T22:27:37.082Z,54.20
2023-05-15T22:30:06.946Z,54.20
2023-05-15T22:32:35.306Z,54.30
2023-05-15T22:35:04.275Z,54.20
2023-05-15T22:37:32.523Z,54.20
2023-05-15T22:40:02.412Z,54.10
2023-05-15T22:42:30.700Z,54.10
2023-05-15T22:44:58.995Z,54.00
2023-05-15T22:47:29.102Z,53.90
2023-05-15T22:49:57.685Z,53.90
2023-05-15T22:52:26.307Z,53.90
2023-05-15T22:54:54.625Z,53.80
2023-05-15T22:57:24.447Z,53.80
2023-05-15T22:59:52.712Z,53.70
2023-05-15T23:17:02.018Z,53.60
2023-05-15T23:19:30.375Z,53.60
2023-05-15T23:21:58.676Z,53.50
2023-05-15T23:24:26.903Z,53.50
2023-05-15T23:26:55.260Z,53.50
2023-05-15T23:29:23.527Z,53.50
